Adelphi, OH (43101)

7:34 AM EST on December 06, 2016 (GMT -0500)
Rock House State Park area | | Change Station

Elev 1086 ft 39.48 °N, 82.66 °W | Updated 8 seconds ago

Overcast
Overcast
36.1 °F
Feels Like 36 °F
N
2.3
Wind Variable Wind from ESE
Gusts 8.0 mph

Today
High -- | Low -- °F
--% Chance of Precip.
Yesterday
High -- | Low -- °F
Precip. -- in
Pressure 29.83 in
Visibility 9.0 miles
Clouds Overcast 3100 ft
Windchill 36 °F
Dew Point 35 °F
Humidity 93%
Rainfall 0.07 in
Snow Depth Not available.
7:37 AM 5:07 PM
Waxing Crescent, 41% visible
METAR KLHQ 061153Z AUTO 10006KT 9SM OVC031 03/01 A2981 RMK AO2 UPB1057E03B25E43RAB03E25 SLP102 P0002 60002 70002 T00280006 10028 20017 56023
Pressure 29.83 in
Visibility 9.0 miles
Clouds Overcast 3100 ft
Windchill 36 °F
Dew Point 35 °F
Humidity 93%
Rainfall 0.07 in
Snow Depth Not available.
7:37 AM 5:07 PM
Waxing Crescent, 41% visible
METAR KLHQ 061153Z AUTO 10006KT 9SM OVC031 03/01 A2981 RMK AO2 UPB1057E03B25E43RAB03E25 SLP102 P0002 60002 70002 T00280006 10028 20017 56023

10-Day Weather Forecast

Almanac

Astronomy

Dec. 06, 2016 Rise Set
Actual Time
Civil Twilight
Nautical Twilight
Astronomical Twilight
Moon
Length of Visible Light
Length of Day
Tomorrow will be .
, % of the Moon is Illuminated

Today's Extremes

State Highs State Lows

Community

WunderPhotos

Upload Photos

1,955,936 photos uploaded!

WunderBlog® & News

Nearby

Air Quality

  Air Quality AQ Index Pollutant
Not available.

Snow Depth

Station Depth Elevation

Earthquake Activity

City Distance Mag. Time & Date
Minimum magnitude displayed is 2.5.

Coastal Water Temperatures

Place Temperature

Stations

Nearby Weather Stations

Station Location Temp. Windchill Dew Point Humidity Wind Precip. Elev Updated Type
                   

Watches & Warnings

There are currently no watches in effect.